createdAt,value
2023-02-06T00:01:43.402Z,102275.22
2023-02-06T00:04:12.623Z,102276.19
2023-02-06T00:06:41.152Z,102280.66
2023-02-06T00:09:10.372Z,102286.91
2023-02-06T00:11:39.226Z,102295.72
2023-02-06T00:14:07.958Z,102289.56
2023-02-06T00:16:36.701Z,102289.59
2023-02-06T00:19:05.434Z,102291.34
2023-02-06T00:21:35.034Z,102294.88
2023-02-06T00:24:04.396Z,102300.16
2023-02-06T00:26:33.869Z,102303.63
2023-02-06T00:29:02.235Z,102303.63
2023-02-06T00:31:30.850Z,102308.03
2023-02-06T00:33:59.144Z,102308.03
2023-02-06T00:36:27.580Z,102305.38
2023-02-06T00:38:55.975Z,102307.19
2023-02-06T00:41:24.226Z,102307.19
2023-02-06T00:43:52.479Z,102302.78
2023-02-06T00:46:20.798Z,102301.00
2023-02-06T00:48:49.127Z,102305.41
2023-02-06T00:51:17.471Z,102304.50
2023-02-06T00:53:45.921Z,102308.94
2023-02-06T00:56:14.200Z,102305.41
2023-02-06T00:58:42.533Z,102311.59
2023-02-06T01:01:10.849Z,102304.56
2023-02-06T01:03:39.173Z,102314.31
2023-02-06T01:06:07.590Z,102304.59
2023-02-06T01:08:35.883Z,102308.16
2023-02-06T01:11:13.842Z,102315.25
2023-02-06T01:13:42.557Z,102316.13
2023-02-06T01:16:13.316Z,102315.28
2023-02-06T01:18:42.140Z,102315.31
2023-02-06T01:21:16.644Z,102311.78
2023-02-06T01:23:45.884Z,102306.47
2023-02-06T01:26:16.724Z,102316.22
2023-02-06T01:28:47.648Z,102312.69
2023-02-06T01:31:22.863Z,102314.47
2023-02-06T01:33:52.152Z,102321.53
2023-02-06T01:36:21.799Z,102318.88
2023-02-06T01:38:51.065Z,102318.00
2023-02-06T01:41:21.540Z,102324.19
2023-02-06T01:44:08.844Z,102311.84
2023-02-06T01:46:37.678Z,102316.25
2023-02-06T01:49:07.587Z,102318.91
2023-02-06T01:51:36.139Z,102329.50
2023-02-06T01:54:07.608Z,102328.63
2023-02-06T01:56:42.929Z,102334.81
2023-02-06T01:59:11.470Z,102348.03
2023-02-06T02:01:40.049Z,102343.63
2023-02-06T02:04:12.183Z,102337.44
2023-02-06T02:06:42.184Z,102340.06
2023-02-06T02:09:10.577Z,102348.00
2023-02-06T02:11:42.796Z,102347.13
2023-02-06T02:14:16.974Z,102348.88
2023-02-06T02:17:34.293Z,102349.78
2023-02-06T02:20:17.442Z,102356.81
2023-02-06T02:23:09.531Z,102365.63
2023-02-06T02:26:06.821Z,102371.78
2023-02-06T02:28:35.106Z,102376.19
2023-02-06T02:31:36.644Z,102376.16
2023-02-06T02:34:31.658Z,102367.38
2023-02-06T02:37:20.955Z,102382.38
2023-02-06T02:40:09.306Z,102382.38
2023-02-06T02:42:54.120Z,102393.84
2023-02-06T02:45:25.013Z,102383.25
2023-02-06T02:48:19.223Z,102391.19
2023-02-06T02:50:47.716Z,102389.41
2023-02-06T02:53:16.205Z,102393.84
2023-02-06T02:55:44.460Z,102405.31
2023-02-06T02:58:17.676Z,102416.78
2023-02-06T03:00:56.668Z,102421.16
2023-02-06T03:03:29.736Z,102418.50
2023-02-06T03:06:12.734Z,102420.28
2023-02-06T03:08:53.120Z,102415.88
2023-02-06T03:11:22.362Z,102422.03
2023-02-06T03:14:17.199Z,102425.56
2023-02-06T03:16:55.808Z,102415.00
2023-02-06T03:19:35.629Z,102417.66
2023-02-06T03:22:06.237Z,102418.56
2023-02-06T03:24:39.856Z,102414.16
2023-02-06T03:27:17.956Z,102427.34
2023-02-06T03:29:49.491Z,102428.25
2023-02-06T03:32:27.942Z,102438.81
2023-02-06T03:35:29.924Z,102431.78
2023-02-06T03:37:58.749Z,102431.78
2023-02-06T03:40:30.041Z,102426.50
2023-02-06T03:43:02.806Z,102421.19
2023-02-06T03:45:44.148Z,102425.63
2023-02-06T03:48:22.765Z,102424.72
2023-02-06T03:50:55.263Z,102437.06
2023-02-06T03:53:25.864Z,102431.75
2023-02-06T03:56:00.425Z,102439.69
2023-02-06T03:58:28.840Z,102441.47
2023-02-06T04:00:57.169Z,102445.88
2023-02-06T04:03:27.489Z,102453.81
2023-02-06T04:05:55.805Z,102459.09
2023-02-06T04:08:24.107Z,102466.16
2023-02-06T04:10:52.661Z,102455.59
2023-02-06T04:13:20.983Z,102468.81
2023-02-06T04:15:49.278Z,102457.34
2023-02-06T04:18:17.577Z,102463.50
2023-02-06T04:20:46.121Z,102461.75
2023-02-06T04:23:14.418Z,102462.59
2023-02-06T04:25:42.689Z,102455.53
2023-02-06T04:28:10.989Z,102453.78
2023-02-06T04:30:39.344Z,102459.94
2023-02-06T04:33:07.621Z,102468.75
2023-02-06T04:35:36.177Z,102470.47
2023-02-06T04:38:04.642Z,102480.19
2023-02-06T04:40:32.913Z,102477.53
2023-02-06T04:43:01.386Z,102477.53
2023-02-06T04:45:29.641Z,102492.56
2023-02-06T04:47:59.456Z,102489.88
2023-02-06T04:50:32.140Z,102487.25
2023-02-06T04:53:00.444Z,102485.47
2023-02-06T04:55:29.082Z,102491.66
2023-02-06T04:57:57.333Z,102496.06
2023-02-06T05:00:25.665Z,102501.38
2023-02-06T05:02:54.031Z,102496.06
2023-02-06T05:05:22.358Z,102501.34
2023-02-06T05:07:50.665Z,102496.09
2023-02-06T05:10:19.092Z,102496.09
2023-02-06T05:12:48.286Z,102502.28
2023-02-06T05:15:16.522Z,102491.69
2023-02-06T05:17:45.385Z,102490.78
2023-02-06T05:20:13.641Z,102501.34
2023-02-06T05:22:41.904Z,102506.66
2023-02-06T05:25:10.199Z,102502.22
2023-02-06T05:27:38.464Z,102496.94
2023-02-06T05:30:07.077Z,102505.75
2023-02-06T05:32:35.413Z,102511.03
2023-02-06T05:35:03.719Z,102517.19
2023-02-06T05:37:31.997Z,102511.00
2023-02-06T05:40:00.461Z,102514.53
2023-02-06T05:42:28.735Z,102511.88
2023-02-06T05:44:57.091Z,102525.09
2023-02-06T05:47:26.824Z,102523.34
2023-02-06T05:49:55.524Z,102526.03
2023-02-06T05:52:23.806Z,102533.97
2023-02-06T05:54:52.109Z,102529.56
2023-02-06T05:57:20.515Z,102529.56
2023-02-06T05:59:48.878Z,102532.22
2023-02-06T06:02:17.217Z,102526.06
2023-02-06T06:04:45.808Z,102526.09
2023-02-06T06:07:14.601Z,102528.72
2023-02-06T06:09:43.226Z,102528.72
2023-02-06T06:12:11.581Z,102525.22
2023-02-06T06:14:39.861Z,102521.69
2023-02-06T06:17:08.631Z,102526.09
2023-02-06T06:19:37.162Z,102535.81
2023-02-06T06:22:05.693Z,102543.75
2023-02-06T06:24:33.945Z,102548.16
2023-02-06T06:27:02.348Z,102554.38
2023-02-06T06:29:31.181Z,102557.91
2023-02-06T06:31:59.544Z,102561.41
2023-02-06T06:34:28.375Z,102561.44
2023-02-06T06:36:56.726Z,102563.19
2023-02-06T06:39:25.192Z,102563.19
2023-02-06T06:41:53.458Z,102557.91
2023-02-06T06:44:21.940Z,102566.75
2023-02-06T06:46:50.215Z,102577.34
2023-02-06T06:49:18.580Z,102563.22
2023-02-06T06:51:46.863Z,102572.03
2023-02-06T06:54:16.306Z,102572.94
2023-02-06T06:56:44.546Z,102578.22
2023-02-06T06:59:13.026Z,102592.31
2023-02-06T07:01:41.495Z,102593.25
2023-02-06T07:04:09.832Z,102585.28
2023-02-06T07:06:38.166Z,102594.16
2023-02-06T07:09:06.492Z,102601.19
2023-02-06T07:11:34.806Z,102595.84
2023-02-06T07:14:03.588Z,102594.09
2023-02-06T07:16:31.982Z,102589.66
2023-02-06T07:19:00.306Z,102593.19
2023-02-06T07:21:28.566Z,102587.91
2023-02-06T07:23:56.889Z,102594.94
2023-02-06T07:26:25.171Z,102590.50
2023-02-06T07:28:53.586Z,102591.34
2023-02-06T07:31:22.710Z,102591.38
2023-02-06T07:33:51.047Z,102596.63
2023-02-06T07:36:19.413Z,102601.06
2023-02-06T07:38:47.723Z,102599.28
2023-02-06T07:41:16.912Z,102592.25
2023-02-06T07:43:45.871Z,102596.63
2023-02-06T07:46:14.164Z,102601.03
2023-02-06T07:48:43.528Z,102605.41
2023-02-06T07:51:11.925Z,102599.22
2023-02-06T07:53:40.203Z,102611.53
2023-02-06T07:56:13.501Z,102616.81
2023-02-06T07:58:42.362Z,102621.16
2023-02-06T08:01:10.840Z,102621.16
2023-02-06T08:03:39.233Z,102621.97
2023-02-06T08:06:15.748Z,102617.50
2023-02-06T08:08:45.060Z,102615.69
2023-02-06T08:11:16.552Z,102627.97
2023-02-06T08:13:46.162Z,102623.53
2023-02-06T08:16:17.909Z,102620.84
2023-02-06T08:18:47.283Z,102613.75
2023-02-06T08:21:23.666Z,102615.47
2023-02-06T08:23:59.730Z,102618.06
2023-02-06T08:26:29.974Z,102611.91
2023-02-06T08:28:59.903Z,102615.41
2023-02-06T08:31:31.081Z,102617.16
2023-02-06T08:33:59.532Z,102614.47
2023-02-06T08:36:33.733Z,102612.69
2023-02-06T08:39:02.911Z,102615.31
2023-02-06T08:41:40.008Z,102608.22
2023-02-06T08:44:12.707Z,102609.94
2023-02-06T08:46:41.206Z,102607.19
2023-02-06T08:49:14.457Z,102598.34
2023-02-06T08:51:43.006Z,102604.47
2023-02-06T08:54:16.609Z,102600.91
2023-02-06T08:56:45.788Z,102604.41
2023-02-06T08:59:16.001Z,102603.47
2023-02-06T09:01:46.391Z,102609.59
2023-02-06T09:04:15.369Z,102608.66
2023-02-06T09:06:45.873Z,102607.72
2023-02-06T09:09:14.721Z,102619.09
2023-02-06T09:11:43.492Z,102621.69
2023-02-06T09:14:16.497Z,102617.28
2023-02-06T09:16:45.169Z,102618.06
2023-02-06T09:19:13.638Z,102636.53
2023-02-06T09:21:42.188Z,102626.88
2023-02-06T09:24:12.402Z,102633.91
2023-02-06T09:26:58.451Z,102633.00
2023-02-06T09:29:34.977Z,102639.94
2023-02-06T09:32:03.339Z,102645.13
2023-02-06T09:34:31.803Z,102650.34
2023-02-06T09:37:03.048Z,102654.59
2023-02-06T09:39:32.473Z,102653.66
2023-02-06T09:42:13.400Z,102658.03
2023-02-06T09:44:54.951Z,102663.25
2023-02-06T09:47:40.929Z,102664.94
2023-02-06T09:50:23.095Z,102669.34
2023-02-06T09:53:09.020Z,102672.94
2023-02-06T09:55:59.301Z,102670.22
2023-02-06T09:58:30.387Z,102671.91
2023-02-06T10:01:35.877Z,102664.81
2023-02-06T10:04:35.932Z,102675.28
2023-02-06T10:07:48.584Z,102674.41
2023-02-06T10:10:38.481Z,102684.94
2023-02-06T10:13:29.241Z,102685.91
2023-02-06T10:16:04.584Z,102685.00
2023-02-06T10:18:47.529Z,102685.81
2023-02-06T10:21:38.054Z,102683.13
2023-02-06T10:24:10.234Z,102683.19
2023-02-06T10:26:40.764Z,102678.81
2023-02-06T10:29:16.910Z,102677.91
2023-02-06T10:32:04.812Z,102681.41
2023-02-06T10:34:46.297Z,102678.72
2023-02-06T10:37:29.552Z,102671.69
2023-02-06T10:40:16.906Z,102676.00
2023-02-06T10:42:50.346Z,102679.44
2023-02-06T10:45:39.437Z,102679.34
2023-02-06T10:48:33.768Z,102681.88
2023-02-06T10:51:25.926Z,102680.88
2023-02-06T10:53:59.787Z,102681.69
2023-02-06T10:56:36.927Z,102691.31
2023-02-06T10:59:19.030Z,102683.34
2023-02-06T11:01:50.294Z,102685.97
2023-02-06T11:04:28.242Z,102686.78
2023-02-06T11:07:05.544Z,102688.44
2023-02-06T11:09:34.639Z,102680.53
2023-02-06T11:12:04.097Z,102686.63
2023-02-06T11:14:38.353Z,102688.34
2023-02-06T11:17:06.694Z,102681.25
2023-02-06T11:19:47.443Z,102681.25
2023-02-06T11:22:27.091Z,102683.78
2023-02-06T11:25:08.730Z,102684.59
2023-02-06T11:27:37.740Z,102680.09
2023-02-06T11:30:22.184Z,102681.78
2023-02-06T11:33:03.628Z,102686.09
2023-02-06T11:35:47.347Z,102686.88
2023-02-06T11:38:25.198Z,102687.66
2023-02-06T11:41:17.624Z,102698.97
2023-02-06T11:43:48.437Z,102694.56
2023-02-06T11:46:27.001Z,102696.31
2023-02-06T11:48:59.432Z,102702.47
2023-02-06T11:51:46.339Z,102697.22
2023-02-06T11:54:29.087Z,102695.41
2023-02-06T11:57:28.905Z,102695.31
2023-02-06T12:00:00.452Z,102700.53
2023-02-06T12:02:30.978Z,102696.13
2023-02-06T12:05:19.364Z,102704.91
2023-02-06T12:07:56.113Z,102700.50
2023-02-06T12:10:27.086Z,102704.91
2023-02-06T12:13:01.896Z,102705.69
2023-02-06T12:15:46.551Z,102703.81
2023-02-06T12:18:40.348Z,102699.25
2023-02-06T12:21:28.745Z,102699.25
2023-02-06T12:24:03.220Z,102700.13
2023-02-06T12:26:35.241Z,102695.66
2023-02-06T12:29:21.448Z,102698.25
2023-02-06T12:32:05.908Z,102701.78
2023-02-06T12:34:45.464Z,102708.69
2023-02-06T12:37:56.532Z,102717.31
2023-02-06T12:40:49.727Z,102717.25
2023-02-06T12:43:20.224Z,102712.00
2023-02-06T12:45:58.901Z,102723.41
2023-02-06T12:48:30.373Z,102711.13
2023-02-06T12:51:07.409Z,102716.34
2023-02-06T12:53:44.278Z,102725.06
2023-02-06T12:56:22.392Z,102725.91
2023-02-06T12:59:06.500Z,102722.28
2023-02-06T13:01:52.936Z,102722.16
2023-02-06T13:04:31.316Z,102715.91
2023-02-06T13:07:09.184Z,102716.72
2023-02-06T13:09:48.616Z,102721.94
2023-02-06T13:12:20.751Z,102723.59
2023-02-06T13:14:55.385Z,102727.97
2023-02-06T13:17:28.035Z,102736.66
2023-02-06T13:20:12.817Z,102744.50
2023-02-06T13:22:45.727Z,102743.53
2023-02-06T13:25:32.070Z,102735.59
2023-02-06T13:28:23.793Z,102748.63
2023-02-06T13:31:02.742Z,102751.91
2023-02-06T13:33:53.608Z,102755.41
2023-02-06T13:36:48.492Z,102757.13
2023-02-06T13:39:32.022Z,102763.19
2023-02-06T13:42:23.222Z,102771.94
2023-02-06T13:44:53.031Z,102770.13
2023-02-06T13:47:54.053Z,102775.41
2023-02-06T13:50:30.256Z,102770.16
2023-02-06T13:53:01.341Z,102771.94
2023-02-06T13:55:53.711Z,102774.56
2023-02-06T13:58:46.579Z,102771.03
2023-02-06T14:01:27.190Z,102768.28
2023-02-06T14:03:56.866Z,102784.78
2023-02-06T14:06:39.803Z,102778.66
2023-02-06T14:09:43.831Z,102783.94
2023-02-06T14:12:45.524Z,102794.34
2023-02-06T14:15:37.222Z,102785.53
2023-02-06T14:18:33.645Z,102796.97
2023-02-06T14:21:36.214Z,102795.16
2023-02-06T14:24:26.934Z,102792.47
2023-02-06T14:27:26.290Z,102796.91
2023-02-06T14:30:31.381Z,102795.16
2023-02-06T14:33:09.085Z,102801.22
2023-02-06T14:36:04.205Z,102803.88
2023-02-06T14:38:52.297Z,102810.84
2023-02-06T14:41:21.016Z,102813.38
2023-02-06T14:43:52.128Z,102811.56
2023-02-06T14:46:21.383Z,102808.84
2023-02-06T14:48:57.379Z,102814.97
2023-02-06T14:51:40.205Z,102814.06
2023-02-06T14:54:28.587Z,102814.97
2023-02-06T14:56:58.741Z,102812.41
2023-02-06T14:59:27.277Z,102814.97
2023-02-06T15:01:57.837Z,102825.44
2023-02-06T15:04:29.433Z,102822.81
2023-02-06T15:07:05.616Z,102820.09
2023-02-06T15:09:36.898Z,102826.22
2023-02-06T15:12:19.686Z,102834.94
2023-02-06T15:14:59.455Z,102833.97
2023-02-06T15:17:28.062Z,102834.78
2023-02-06T15:19:56.563Z,102849.78
2023-02-06T15:22:31.229Z,102848.06
2023-02-06T15:25:18.089Z,102849.84
2023-02-06T15:27:47.036Z,102844.63
2023-02-06T15:30:24.859Z,102844.59
2023-02-06T15:32:55.495Z,102844.63
2023-02-06T15:35:27.900Z,102842.94
2023-02-06T15:37:57.704Z,102847.31
2023-02-06T15:40:39.804Z,102845.53
2023-02-06T15:43:08.191Z,102848.22
2023-02-06T15:45:40.454Z,102855.44
2023-02-06T15:48:36.373Z,102855.63
2023-02-06T15:51:24.818Z,102848.06
2023-02-06T15:54:17.598Z,102852.63
2023-02-06T15:56:55.610Z,102853.63
2023-02-06T15:59:26.497Z,102853.91
2023-02-06T16:01:58.098Z,102856.78
2023-02-06T16:04:36.269Z,102860.44
2023-02-06T16:07:20.193Z,102853.53
2023-02-06T16:10:26.112Z,102859.91
2023-02-06T16:12:55.970Z,102860.97
2023-02-06T16:15:36.733Z,102855.88
2023-02-06T16:18:28.272Z,102857.00
2023-02-06T16:21:24.167Z,102868.63
2023-02-06T16:24:07.128Z,102866.31
2023-02-06T16:26:47.961Z,102875.50
2023-02-06T16:29:31.040Z,102879.31
2023-02-06T16:32:15.168Z,102867.34
2023-02-06T16:34:46.306Z,102869.28
2023-02-06T16:37:23.088Z,102876.53
2023-02-06T16:39:51.585Z,102869.69
2023-02-06T16:42:33.705Z,102869.84
2023-02-06T16:45:07.318Z,102870.94
2023-02-06T16:47:35.689Z,102872.00
2023-02-06T16:50:04.096Z,102872.19
2023-02-06T16:52:34.497Z,102872.38
2023-02-06T16:55:03.502Z,102875.19
2023-02-06T16:57:35.903Z,102876.28
2023-02-06T17:00:10.351Z,102872.00
2023-02-06T17:02:39.189Z,102869.53
2023-02-06T17:05:07.782Z,102880.31
2023-02-06T17:07:36.172Z,102876.00
2023-02-06T17:10:05.347Z,102878.78
2023-02-06T17:12:34.056Z,102865.69
2023-02-06T17:15:02.815Z,102869.34
2023-02-06T17:17:31.391Z,102883.56
2023-02-06T17:19:59.921Z,102883.69
2023-02-06T17:22:28.331Z,102882.94
2023-02-06T17:24:56.897Z,102882.19
2023-02-06T17:27:25.226Z,102884.88
2023-02-06T17:29:54.665Z,102876.16
2023-02-06T17:32:23.777Z,102874.47
2023-02-06T17:34:54.971Z,102882.44
2023-02-06T17:37:23.373Z,102885.16
2023-02-06T17:39:53.244Z,102880.81
2023-02-06T17:42:24.050Z,102883.50
2023-02-06T17:44:52.503Z,102887.13
2023-02-06T17:47:20.948Z,102883.69
2023-02-06T17:49:49.269Z,102884.59
2023-02-06T17:52:17.994Z,102886.41
2023-02-06T17:54:46.491Z,102883.84
2023-02-06T17:57:14.765Z,102887.41
2023-02-06T17:59:43.274Z,102903.38
2023-02-06T18:02:17.200Z,102902.59
2023-02-06T18:04:49.517Z,102898.25
2023-02-06T18:07:17.880Z,102901.84
2023-02-06T18:09:47.961Z,102908.97
2023-02-06T18:12:16.866Z,102911.66
2023-02-06T18:14:45.547Z,102916.13
2023-02-06T18:17:14.055Z,102913.53
2023-02-06T18:19:43.732Z,102912.69
2023-02-06T18:22:15.151Z,102917.09
2023-02-06T18:24:44.112Z,102917.19
2023-02-06T18:27:13.140Z,102924.28
2023-02-06T18:29:50.006Z,102920.81
2023-02-06T18:32:20.027Z,102920.84
2023-02-06T18:34:48.480Z,102913.81
2023-02-06T18:37:17.134Z,102920.06
2023-02-06T18:39:45.777Z,102916.56
2023-02-06T18:42:32.547Z,102918.38
2023-02-06T18:45:03.185Z,102907.81
2023-02-06T18:47:32.290Z,102908.72
2023-02-06T18:50:00.595Z,102906.09
2023-02-06T18:52:29.011Z,102899.94
2023-02-06T18:54:57.281Z,102895.56
2023-02-06T18:57:25.596Z,102891.16
2023-02-06T18:59:53.853Z,102893.88
2023-02-06T19:02:22.213Z,102888.59
2023-02-06T19:04:50.608Z,102887.72
2023-02-06T19:07:19.333Z,102876.25
2023-02-06T19:09:47.638Z,102880.69
2023-02-06T19:12:15.967Z,102877.16
2023-02-06T19:14:44.549Z,102869.25
2023-02-06T19:17:12.905Z,102864.81
2023-02-06T19:19:41.161Z,102857.78
2023-02-06T19:22:09.401Z,102861.31
2023-02-06T19:24:37.843Z,102857.78
2023-02-06T19:27:06.131Z,102851.63
2023-02-06T19:29:36.457Z,102852.56
2023-02-06T19:32:07.181Z,102846.41
2023-02-06T19:34:37.944Z,102846.38
2023-02-06T19:37:11.113Z,102837.56
2023-02-06T19:39:41.198Z,102834.00
2023-02-06T19:42:11.436Z,102834.00
2023-02-06T19:44:39.746Z,102826.03
2023-02-06T19:47:08.009Z,102812.75
2023-02-06T19:49:36.554Z,102822.50
2023-02-06T19:52:05.452Z,102821.59
2023-02-06T19:54:33.779Z,102815.41
2023-02-06T19:57:02.071Z,102814.50
2023-02-06T19:59:31.269Z,102815.38
2023-02-06T20:02:01.971Z,102798.56
2023-02-06T20:04:34.962Z,102795.88
2023-02-06T20:07:03.861Z,102786.13
2023-02-06T20:09:32.369Z,102779.91
2023-02-06T20:12:00.649Z,102770.16
2023-02-06T20:14:29.154Z,102765.72
2023-02-06T20:16:57.549Z,102770.09
2023-02-06T20:19:28.267Z,102771.00
2023-02-06T20:21:59.944Z,102763.88
2023-02-06T20:24:31.431Z,102760.31
2023-02-06T20:27:02.598Z,102760.28
2023-02-06T20:29:37.512Z,102760.28
2023-02-06T20:32:07.251Z,102750.47
2023-02-06T20:34:36.461Z,102751.34
2023-02-06T20:37:05.664Z,102740.66
2023-02-06T20:39:35.450Z,102727.31
2023-02-06T20:42:03.749Z,102718.38
2023-02-06T20:44:32.291Z,102718.31
2023-02-06T20:47:00.730Z,102724.50
2023-02-06T20:49:31.777Z,102711.19
2023-02-06T20:52:00.062Z,102711.16
2023-02-06T20:54:28.398Z,102705.78
2023-02-06T20:56:56.982Z,102700.41
2023-02-06T20:59:25.695Z,102680.88
2023-02-06T21:01:54.071Z,102690.59
2023-02-06T21:04:22.453Z,102680.72
2023-02-06T21:06:50.893Z,102677.97
2023-02-06T21:09:20.233Z,102681.44
2023-02-06T21:11:51.491Z,102670.69
2023-02-06T21:14:20.526Z,102660.81
2023-02-06T21:16:49.748Z,102667.00
2023-02-06T21:19:20.181Z,102660.72
2023-02-06T21:21:48.767Z,102657.09
2023-02-06T21:24:18.472Z,102658.81
2023-02-06T21:26:46.778Z,102666.75
2023-02-06T21:29:16.437Z,102663.09
2023-02-06T21:31:45.790Z,102661.25
2023-02-06T21:34:22.123Z,102656.72
2023-02-06T21:36:51.991Z,102645.13
2023-02-06T21:39:23.865Z,102644.19
2023-02-06T21:41:52.768Z,102637.88
2023-02-06T21:44:24.517Z,102631.69
2023-02-06T21:46:53.272Z,102632.34
2023-02-06T21:49:22.032Z,102616.22
2023-02-06T21:51:51.297Z,102613.38
2023-02-06T21:54:19.751Z,102603.50
2023-02-06T21:56:48.029Z,102604.25
2023-02-06T21:59:16.280Z,102612.97
2023-02-06T22:01:44.530Z,102609.28
2023-02-06T22:04:13.227Z,102602.06
2023-02-06T22:06:41.626Z,102594.72
2023-02-06T22:09:16.009Z,102595.38
2023-02-06T22:11:45.411Z,102593.28
2023-02-06T22:14:18.329Z,102594.66
2023-02-06T22:16:50.072Z,102587.28
2023-02-06T22:19:19.388Z,102593.88
2023-02-06T22:21:47.666Z,102595.25
2023-02-06T22:24:15.917Z,102599.50
2023-02-06T22:26:44.798Z,102596.06
2023-02-06T22:29:16.720Z,102590.66
2023-02-06T22:31:46.739Z,102601.34
2023-02-06T22:34:21.062Z,102588.00
2023-02-06T22:36:51.788Z,102586.97
2023-02-06T22:39:20.626Z,102578.66
2023-02-06T22:41:49.754Z,102575.69
2023-02-06T22:44:20.686Z,102581.47
2023-02-06T22:46:52.111Z,102577.81
2023-02-06T22:49:22.605Z,102581.34
2023-02-06T22:51:51.148Z,102578.66
2023-02-06T22:54:19.625Z,102573.25
2023-02-06T22:56:48.566Z,102573.44
2023-02-06T22:59:20.808Z,102573.44
2023-02-06T23:01:50.447Z,102574.66
2023-02-06T23:04:29.780Z,102579.25
2023-02-06T23:06:58.560Z,102573.13
2023-02-06T23:09:29.779Z,102570.69
2023-02-06T23:12:01.865Z,102562.88
2023-02-06T23:14:32.580Z,102563.81
2023-02-06T23:17:01.983Z,102561.88
2023-02-06T23:19:31.100Z,102561.06
2023-02-06T23:21:59.610Z,102561.34
2023-02-06T23:24:27.923Z,102554.47
2023-02-06T23:26:56.346Z,102553.88
2023-02-06T23:29:25.142Z,102553.25
2023-02-06T23:31:53.632Z,102544.72
2023-02-06T23:34:25.075Z,102544.03
2023-02-06T23:36:53.909Z,102543.44
2023-02-06T23:39:22.827Z,102540.00
2023-02-06T23:41:51.338Z,102534.75
2023-02-06T23:44:20.293Z,102532.22
2023-02-06T23:46:48.750Z,102527.09
2023-02-06T23:49:17.137Z,102525.50
2023-02-06T23:51:45.851Z,102523.13
2023-02-06T23:54:14.303Z,102525.03
2023-02-06T23:56:42.590Z,102527.88
2023-02-06T23:59:12.976Z,102525.38
